Terminal Aerodrome Forecast
Issued by NWS

Home | Current Version | Previous Version | Text Only | Print | Product List | Glossary Off
Versions: 1 2 3 4 5 6 7 8 9 10 11 12 13 14 15 16

000
FTUS43 KTOP 301132
TAFMHK
TAF
KMHK 301132Z 3012/3112 00000KT 3SM BR OVC006
      TEMPO 3012/3016 1/4SM FG VV002
     FM301600 08004KT P6SM BKN008
     FM301900 10005KT P6SM SCT025=

USA.gov is the U.S. government's official web portal to all federal, state and local government web resources and services.